Time;durP1;ratioP1;P1;durP2;ratioP2;P2;SDS_P1;SDS_P2;PMS_P1;PMS_P2;Temp;Humidity;BMP_temperature;BMP_pressure;BME280_temperature;BME280_humidity;BME280_pressure;Samples;Min_cycle;Max_cycle;Signal;HPM_P1;HPM_P2
2022/08/22 00:00:13;;;;;;;1.87;1.53;;;22.50;57.90;;;;;;5065119;28;20492;-69
2022/08/22 00:02:52;;;;;;;1.93;1.73;;;22.60;57.50;;;;;;5069262;28;20884;-69
2022/08/22 00:05:39;;;;;;;2.10;1.23;;;22.60;57.50;;;;;;5076337;28;20463;-69
2022/08/22 00:08:21;;;;;;;1.97;1.40;;;22.60;57.40;;;;;;5053752;28;20457;-69
2022/08/22 00:11:13;;;;;;;2.20;1.60;;;22.50;57.30;;;;;;5067952;28;20554;-68
2022/08/22 00:14:09;;;;;;;1.83;1.73;;;22.60;57.50;;;;;;5056279;28;20813;-69
2022/08/22 00:16:45;;;;;;;4.40;1.40;;;22.50;57.20;;;;;;5048585;28;20454;-69
2022/08/22 00:19:23;;;;;;;5.20;1.70;;;22.60;57.20;;;;;;5046184;28;20470;-68
2022/08/22 00:22:08;;;;;;;3.60;1.60;;;22.60;57.30;;;;;;5052872;28;20447;-68
2022/08/22 00:25:00;;;;;;;1.70;1.60;;;22.60;57.20;;;;;;5066771;28;20467;-69
2022/08/22 00:27:33;;;;;;;1.50;1.40;;;22.50;57.20;;;;;;5069049;28;20483;-69
2022/08/22 00:30:15;;;;;;;2.67;1.50;;;22.50;57.20;;;;;;5069917;28;20449;-69
2022/08/22 00:33:03;;;;;;;1.60;1.50;;;22.50;57.10;;;;;;5067981;28;20511;-70
2022/08/22 00:35:37;;;;;;;2.30;1.70;;;22.50;57.10;;;;;;5052225;28;20533;-68
2022/08/22 00:38:21;;;;;;;4.50;1.60;;;22.50;57.20;;;;;;5062705;28;20465;-69
2022/08/22 00:40:52;;;;;;;1.50;1.40;;;22.40;57.20;;;;;;5055067;28;20452;-69
2022/08/22 00:44:01;;;;;;;2.33;2.10;;;22.50;57.20;;;;;;5069917;28;20956;-70
2022/08/22 00:47:03;;;;;;;1.53;1.20;;;22.50;57.30;;;;;;5064722;28;20453;-68
2022/08/22 00:49:47;;;;;;;1.60;1.50;;;22.40;57.50;;;;;;5052595;28;20444;-69
2022/08/22 00:52:50;;;;;;;1.70;1.60;;;22.40;57.40;;;;;;5087838;27;20472;-69
2022/08/22 00:55:55;;;;;;;1.63;1.50;;;22.40;57.30;;;;;;5071488;28;20496;-69
2022/08/22 00:58:48;;;;;;;2.10;1.70;;;22.40;57.40;;;;;;5040981;28;20819;-70
2022/08/22 01:01:18;;;;;;;1.60;1.50;;;22.40;57.20;;;;;;5077919;28;20540;-69
2022/08/22 01:03:47;;;;;;;2.23;1.80;;;22.40;57.10;;;;;;5067945;28;20457;-69
2022/08/22 01:06:38;;;;;;;3.20;1.87;;;22.40;57.20;;;;;;5064977;28;20465;-69
2022/08/22 01:09:40;;;;;;;1.97;1.87;;;22.40;57.10;;;;;;5067907;28;20995;-69
2022/08/22 01:12:23;;;;;;;1.97;1.60;;;22.40;57.10;;;;;;5050175;28;20973;-69
2022/08/22 01:14:56;;;;;;;1.63;1.53;;;22.40;57.00;;;;;;5040863;28;20487;-69
2022/08/22 01:18:00;;;;;;;3.93;1.70;;;22.40;57.10;;;;;;5069437;27;20465;-69
2022/08/22 01:20:47;;;;;;;1.33;1.30;;;22.40;57.10;;;;;;5053438;28;20466;-67
2022/08/22 01:23:44;;;;;;;1.90;1.57;;;22.40;57.10;;;;;;5079280;27;20535;-69
2022/08/22 01:26:39;;;;;;;5.33;2.30;;;22.40;57.20;;;;;;5048224;28;20461;-69
2022/08/22 01:29:40;;;;;;;2.83;1.80;;;22.30;57.10;;;;;;5052342;28;20471;-69
2022/08/22 01:32:31;;;;;;;1.80;1.70;;;22.30;57.10;;;;;;5052828;28;20488;-69
2022/08/22 01:35:00;;;;;;;1.20;1.20;;;22.30;57.20;;;;;;5073481;28;20465;-69
2022/08/22 01:37:34;;;;;;;1.63;1.53;;;22.30;57.20;;;;;;5059190;28;20485;-70
2022/08/22 01:40:18;;;;;;;2.27;1.77;;;22.20;57.10;;;;;;5084482;28;20538;-69
2022/08/22 01:42:47;;;;;;;1.70;1.60;;;22.30;57.20;;;;;;5056189;28;20461;-69
2022/08/22 01:45:37;;;;;;;1.60;1.50;;;22.20;57.20;;;;;;5041619;28;20473;-69
2022/08/22 01:48:24;;;;;;;2.43;1.70;;;22.20;57.20;;;;;;5066952;28;20548;-69
2022/08/22 01:50:54;;;;;;;1.70;1.60;;;22.20;57.30;;;;;;5050489;28;20444;-69
2022/08/22 01:53:29;;;;;;;1.93;1.83;;;22.10;57.20;;;;;;5070331;27;20469;-69
2022/08/22 01:56:18;;;;;;;2.63;2.00;;;22.00;57.20;;;;;;5052404;28;20556;-69
2022/08/22 01:58:55;;;;;;;1.90;1.80;;;22.00;57.30;;;;;;5085759;28;20524;-68
2022/08/22 02:01:36;;;;;;;2.03;1.80;;;22.00;57.40;;;;;;5068351;28;20494;-69
2022/08/22 02:04:08;;;;;;;2.00;1.90;;;22.00;57.40;;;;;;5088212;28;20683;-69
2022/08/22 02:07:07;;;;;;;2.40;1.73;;;22.00;57.50;;;;;;5049677;28;20826;-68
2022/08/22 02:09:54;;;;;;;1.70;1.60;;;22.00;57.40;;;;;;5051778;28;20460;-68
2022/08/22 02:13:05;;;;;;;2.13;1.93;;;21.90;57.40;;;;;;5046918;28;20468;-69
2022/08/22 02:15:40;;;;;;;3.60;1.40;;;21.90;57.50;;;;;;5049009;28;20495;-68
2022/08/22 02:18:05;;;;;;;2.73;1.67;;;21.90;57.50;;;;;;5060498;28;20452;-69
2022/08/22 02:20:46;;;;;;;1.87;1.77;;;21.90;57.60;;;;;;5072881;28;20457;-69
2022/08/22 02:23:51;;;;;;;1.97;1.50;;;21.80;57.70;;;;;;5078298;27;20721;-69
2022/08/22 02:26:23;;;;;;;1.67;1.57;;;21.80;57.70;;;;;;5069803;28;20452;-70
2022/08/22 02:29:07;;;;;;;1.60;1.50;;;21.80;57.60;;;;;;5072938;28;20465;-70
2022/08/22 02:31:33;;;;;;;4.20;1.80;;;21.80;57.70;;;;;;5087925;28;20457;-68
2022/08/22 02:34:02;;;;;;;5.17;1.53;;;21.80;57.70;;;;;;5067418;28;20463;-67
2022/08/22 02:36:31;;;;;;;2.13;1.60;;;21.80;57.70;;;;;;5065713;28;20223;-70
2022/08/22 02:39:08;;;;;;;1.97;1.87;;;21.80;57.80;;;;;;5069235;28;20452;-69
2022/08/22 02:41:53;;;;;;;3.80;1.77;;;21.70;57.70;;;;;;5074557;28;20440;-68
2022/08/22 02:44:33;;;;;;;2.30;1.80;;;21.70;57.80;;;;;;5085141;28;20977;-70
2022/08/22 02:47:24;;;;;;;1.50;1.43;;;21.60;57.70;;;;;;5066848;28;20476;-67
2022/08/22 02:50:41;;;;;;;2.00;1.90;;;21.60;57.70;;;;;;5068952;28;20487;-69
2022/08/22 02:53:07;;;;;;;2.10;1.90;;;21.60;57.70;;;;;;5010507;28;20484;-70
2022/08/22 02:55:38;;;;;;;2.30;1.97;;;21.60;57.70;;;;;;5012028;28;20502;-69
2022/08/22 02:58:29;;;;;;;1.80;1.70;;;21.60;57.70;;;;;;5043281;28;20227;-69
2022/08/22 03:01:10;;;;;;;3.73;2.07;;;21.60;57.70;;;;;;5057677;28;20535;-69
2022/08/22 03:03:40;;;;;;;2.07;1.63;;;21.60;57.70;;;;;;5064553;28;20502;-69
2022/08/22 03:06:40;;;;;;;4.17;2.60;;;21.60;57.80;;;;;;5070486;28;20453;-69
2022/08/22 03:09:24;;;;;;;2.83;2.03;;;21.50;57.60;;;;;;5071812;28;20468;-68
2022/08/22 03:12:07;;;;;;;1.90;1.80;;;21.50;57.80;;;;;;5075223;28;20911;-68
2022/08/22 03:14:46;;;;;;;1.90;1.70;;;21.50;57.80;;;;;;5060969;27;20461;-69
2022/08/22 03:17:30;;;;;;;2.00;1.90;;;21.50;57.80;;;;;;5088531;27;20464;-69
2022/08/22 03:20:05;;;;;;;3.60;1.90;;;21.40;57.90;;;;;;5075524;28;20841;-69
2022/08/22 03:22:42;;;;;;;1.60;1.50;;;21.40;57.80;;;;;;5073778;28;20835;-69
2022/08/22 03:25:29;;;;;;;2.20;2.00;;;21.40;57.80;;;;;;5069086;28;20458;-69
2022/08/22 03:27:59;;;;;;;2.60;2.40;;;21.30;58.00;;;;;;5067238;28;20449;-69
2022/08/22 03:30:54;;;;;;;1.87;1.77;;;21.30;58.30;;;;;;5070641;28;20476;-68
2022/08/22 03:33:29;;;;;;;2.40;1.93;;;21.30;58.00;;;;;;5068143;28;20477;-67
2022/08/22 03:36:05;;;;;;;2.13;1.97;;;21.30;58.00;;;;;;5071633;28;20465;-69
2022/08/22 03:38:30;;;;;;;2.33;2.13;;;21.20;58.10;;;;;;5070702;28;20862;-69
2022/08/22 03:41:41;;;;;;;2.10;1.90;;;21.20;58.10;;;;;;5070189;28;20503;-69
2022/08/22 03:44:16;;;;;;;3.80;1.83;;;21.20;58.10;;;;;;5072176;28;20210;-69
2022/08/22 03:47:19;;;;;;;2.20;2.00;;;21.20;58.20;;;;;;5070535;28;20436;-69
2022/08/22 03:50:04;;;;;;;2.20;2.00;;;21.20;58.30;;;;;;5075715;28;20457;-69
2022/08/22 03:55:43;;;;;;;10.80;1.80;;;21.00;58.30;;;;;;5051969;28;20466;-69
2022/08/22 03:58:20;;;;;;;2.10;2.00;;;21.00;58.40;;;;;;5089215;27;20551;-69
2022/08/22 04:01:03;;;;;;;1.73;1.60;;;21.00;58.40;;;;;;5063917;28;20464;-68
2022/08/22 04:04:10;;;;;;;3.10;2.37;;;21.00;58.30;;;;;;5063537;28;20462;-69
2022/08/22 04:06:57;;;;;;;3.37;2.60;;;21.00;58.40;;;;;;5044459;28;20457;-69
2022/08/22 04:09:58;;;;;;;2.37;2.10;;;20.90;58.40;;;;;;5054974;28;20460;-68
2022/08/22 04:12:56;;;;;;;2.77;2.33;;;20.90;58.40;;;;;;5086194;27;20503;-69
2022/08/22 04:15:40;;;;;;;2.67;2.47;;;20.90;58.40;;;;;;5067083;28;20482;-69
2022/08/22 04:18:42;;;;;;;2.67;2.37;;;20.90;58.60;;;;;;5073944;28;20460;-68
2022/08/22 04:21:50;;;;;;;2.93;2.30;;;20.80;58.60;;;;;;5036427;28;20937;-69
2022/08/22 04:24:44;;;;;;;2.53;2.33;;;20.80;58.40;;;;;;5061753;28;20466;-69
2022/08/22 04:27:31;;;;;;;1.90;1.80;;;20.80;58.50;;;;;;5061605;28;20446;-69
2022/08/22 04:30:22;;;;;;;3.13;2.50;;;20.80;58.50;;;;;;5051825;28;20484;-69
2022/08/22 04:32:58;;;;;;;2.07;1.97;;;20.80;58.40;;;;;;5063842;28;20453;-67
2022/08/22 04:35:40;;;;;;;2.83;2.40;;;20.70;58.40;;;;;;5082991;28;20462;-68
2022/08/22 04:38:25;;;;;;;2.67;2.47;;;20.70;58.50;;;;;;5065503;28;20489;-69
2022/08/22 04:41:06;;;;;;;3.13;2.20;;;20.70;58.50;;;;;;5050048;28;20457;-69
2022/08/22 04:43:59;;;;;;;4.00;2.30;;;20.70;58.30;;;;;;5064773;28;20453;-69
2022/08/22 04:46:48;;;;;;;2.13;2.00;;;20.70;58.40;;;;;;5065757;28;20464;-69
2022/08/22 04:49:27;;;;;;;5.73;2.37;;;20.70;58.40;;;;;;5068308;28;20546;-70
2022/08/22 04:52:03;;;;;;;2.27;2.07;;;20.60;58.30;;;;;;5078809;27;20462;-69
2022/08/22 04:55:06;;;;;;;2.57;2.17;;;20.60;58.40;;;;;;5060888;28;20472;-67
2022/08/22 04:58:31;;;;;;;2.43;2.23;;;20.60;58.30;;;;;;5069039;27;20449;-69
2022/08/22 05:01:10;;;;;;;3.77;3.03;;;20.60;58.40;;;;;;5047198;28;20444;-68
2022/08/22 05:03:40;;;;;;;2.70;2.40;;;20.60;58.60;;;;;;5066744;28;20452;-69
2022/08/22 05:06:08;;;;;;;5.00;2.50;;;20.60;58.40;;;;;;5068071;28;20446;-69
2022/08/22 05:08:39;;;;;;;3.00;2.63;;;20.50;58.50;;;;;;5061396;28;20465;-69
2022/08/22 05:11:06;;;;;;;2.73;2.30;;;20.50;58.60;;;;;;5068281;28;20457;-69
2022/08/22 05:13:39;;;;;;;4.87;1.93;;;20.50;58.80;;;;;;5059120;28;20450;-69
2022/08/22 05:16:13;;;;;;;4.70;2.17;;;20.50;58.70;;;;;;5064779;28;20557;-69
2022/08/22 05:18:46;;;;;;;2.90;2.63;;;20.50;58.90;;;;;;5047035;28;20446;-68
2022/08/22 05:21:14;;;;;;;2.10;1.90;;;20.50;58.90;;;;;;5068670;28;20453;-69
2022/08/22 05:23:50;;;;;;;2.37;2.17;;;20.40;58.70;;;;;;5082453;28;20918;-69
2022/08/22 05:26:18;;;;;;;12.23;2.90;;;20.40;58.70;;;;;;5066449;28;20574;-68
2022/08/22 05:28:55;;;;;;;2.33;2.13;;;20.40;59.20;;;;;;5059576;28;20478;-68
2022/08/22 05:31:27;;;;;;;2.50;2.30;;;20.40;58.70;;;;;;5059336;28;20449;-68
2022/08/22 05:34:00;;;;;;;2.10;2.00;;;20.40;58.80;;;;;;5067779;28;20453;-68
2022/08/22 05:36:40;;;;;;;3.80;2.50;;;20.40;59.30;;;;;;5057270;28;20466;-68
2022/08/22 05:39:09;;;;;;;1.90;1.80;;;20.40;58.90;;;;;;5042051;28;20461;-69
2022/08/22 05:41:38;;;;;;;2.40;2.20;;;20.40;58.90;;;;;;5062040;28;20465;-69
2022/08/22 05:44:13;;;;;;;2.50;2.30;;;20.50;59.00;;;;;;5054094;28;20450;-68
2022/08/22 05:46:45;;;;;;;2.30;2.10;;;20.50;59.20;;;;;;5063294;28;20425;-68
2022/08/22 05:49:37;;;;;;;2.53;2.33;;;20.50;59.30;;;;;;5062077;28;20446;-68
2022/08/22 05:52:38;;;;;;;2.50;2.30;;;20.50;59.20;;;;;;5066685;28;20445;-69
2022/08/22 05:55:13;;;;;;;2.13;2.00;;;20.50;59.70;;;;;;5059404;28;20470;-69
2022/08/22 05:57:46;;;;;;;3.40;2.57;;;20.50;59.50;;;;;;5061604;28;20453;-69
2022/08/22 06:00:17;;;;;;;2.27;2.10;;;20.50;59.70;;;;;;5054091;28;20891;-69
2022/08/22 06:03:09;;;;;;;2.10;2.00;;;20.60;59.50;;;;;;5059927;28;20450;-69
2022/08/22 06:05:40;;;;;;;4.10;2.20;;;20.60;59.40;;;;;;5063294;28;20457;-68
2022/08/22 06:08:18;;;;;;;10.60;2.70;;;20.60;59.70;;;;;;5071161;28;21015;-70
2022/08/22 06:10:48;;;;;;;2.73;2.33;;;20.60;59.70;;;;;;5046844;28;20997;-68
2022/08/22 06:13:22;;;;;;;2.27;2.10;;;20.60;59.70;;;;;;5077485;28;20468;-68
2022/08/22 06:16:06;;;;;;;2.50;2.30;;;20.70;59.80;;;;;;5058573;28;20461;-68
2022/08/22 06:18:34;;;;;;;2.27;2.03;;;20.70;59.80;;;;;;5063429;28;20982;-69
2022/08/22 06:21:05;;;;;;;4.10;2.67;;;20.70;60.40;;;;;;5060287;28;20449;-69
2022/08/22 06:23:44;;;;;;;5.73;2.60;;;20.70;60.20;;;;;;5065337;28;20465;-68
2022/08/22 06:26:11;;;;;;;3.23;2.43;;;20.70;59.70;;;;;;5062515;28;20474;-69
2022/08/22 06:28:41;;;;;;;5.50;2.43;;;20.80;60.90;;;;;;5038218;28;21066;-69
2022/08/22 06:31:16;;;;;;;2.47;2.27;;;20.90;61.10;;;;;;5066142;28;20464;-69
2022/08/22 06:33:45;;;;;;;2.43;2.03;;;20.90;61.30;;;;;;5061588;28;20441;-69
2022/08/22 06:36:32;;;;;;;2.57;2.40;;;20.90;61.10;;;;;;5064402;28;20473;-69
2022/08/22 06:39:09;;;;;;;2.33;1.93;;;21.00;61.10;;;;;;5049737;28;20514;-69
2022/08/22 06:41:39;;;;;;;2.57;2.37;;;21.00;61.40;;;;;;5072107;28;20454;-68
2022/08/22 06:44:14;;;;;;;6.87;2.50;;;21.10;61.80;;;;;;5050586;28;20996;-69
2022/08/22 06:46:44;;;;;;;3.70;2.30;;;21.10;61.30;;;;;;5077123;28;20962;-69
2022/08/22 06:49:11;;;;;;;3.13;2.67;;;21.10;61.60;;;;;;5066740;28;20460;-69
2022/08/22 06:51:38;;;;;;;3.17;2.90;;;21.20;61.80;;;;;;5082296;28;20438;-68
2022/08/22 06:54:07;;;;;;;2.60;2.40;;;21.30;62.10;;;;;;5067784;28;20591;-69
2022/08/22 06:56:38;;;;;;;2.50;2.30;;;21.40;62.90;;;;;;5049931;28;20685;-69
2022/08/22 06:59:11;;;;;;;3.63;3.00;;;21.40;62.50;;;;;;5063818;28;20454;-69
2022/08/22 07:01:44;;;;;;;2.93;2.73;;;21.40;62.40;;;;;;5062340;28;21922;-68
2022/08/22 07:04:10;;;;;;;2.93;2.73;;;21.50;62.90;;;;;;5064634;28;20840;-69
2022/08/22 07:06:43;;;;;;;2.87;2.67;;;21.60;63.30;;;;;;5062175;28;20445;-69
2022/08/22 07:09:21;;;;;;;4.13;2.53;;;21.70;63.50;;;;;;5066815;28;20215;-69
2022/08/22 07:11:47;;;;;;;3.50;2.97;;;21.70;63.60;;;;;;5063835;28;20434;-68
2022/08/22 07:14:25;;;;;;;4.67;2.60;;;21.80;62.90;;;;;;5059227;28;20467;-69
2022/08/22 07:17:01;;;;;;;3.20;2.90;;;21.90;63.60;;;;;;5076828;28;21113;-68
2022/08/22 07:19:38;;;;;;;2.83;2.43;;;21.90;63.30;;;;;;5075055;28;20464;-69
2022/08/22 07:22:20;;;;;;;7.10;2.50;;;22.00;64.70;;;;;;5064888;28;20454;-68
2022/08/22 07:24:51;;;;;;;3.13;2.83;;;22.10;63.90;;;;;;5062493;28;20527;-70
2022/08/22 07:27:41;;;;;;;4.00;3.00;;;22.10;64.00;;;;;;5041926;28;20449;-69
2022/08/22 07:30:10;;;;;;;6.47;2.53;;;22.30;64.60;;;;;;5057117;28;20454;-69
2022/08/22 07:32:51;;;;;;;4.60;3.10;;;22.40;63.90;;;;;;5065916;28;20453;-70
2022/08/22 07:35:25;;;;;;;3.40;3.10;;;22.40;64.30;;;;;;5064390;28;20483;-68
2022/08/22 07:38:12;;;;;;;3.63;2.87;;;22.50;64.10;;;;;;5074059;28;20507;-69
2022/08/22 07:41:08;;;;;;;3.20;2.90;;;22.60;64.20;;;;;;5064860;28;20469;-69
2022/08/22 07:43:49;;;;;;;3.03;2.80;;;22.70;64.50;;;;;;5061030;28;20509;-69
2022/08/22 07:46:39;;;;;;;3.83;3.53;;;22.80;64.60;;;;;;5065030;28;20484;-69
2022/08/22 07:49:25;;;;;;;4.17;3.20;;;22.90;64.10;;;;;;5062630;28;20476;-69
2022/08/22 07:51:54;;;;;;;3.20;2.77;;;23.00;64.20;;;;;;5058031;28;20449;-69
2022/08/22 07:54:29;;;;;;;3.80;2.90;;;23.00;64.40;;;;;;5066701;28;20558;-70
2022/08/22 07:57:03;;;;;;;3.50;3.20;;;23.10;64.20;;;;;;5066962;28;20453;-68
2022/08/22 07:59:32;;;;;;;3.43;3.13;;;23.20;64.50;;;;;;5052736;28;20445;-69
2022/08/22 08:02:00;;;;;;;4.27;3.27;;;23.30;64.20;;;;;;5067326;28;20445;-71
2022/08/22 08:04:32;;;;;;;3.57;3.30;;;23.40;64.10;;;;;;5064015;28;20473;-68
2022/08/22 08:07:00;;;;;;;4.03;3.63;;;23.40;64.00;;;;;;5068801;28;20457;-69
2022/08/22 08:09:31;;;;;;;3.67;3.37;;;23.50;64.10;;;;;;5069416;28;20510;-70
2022/08/22 08:12:00;;;;;;;3.80;3.40;;;23.60;63.90;;;;;;5064376;28;20442;-69
2022/08/22 08:14:27;;;;;;;3.67;3.37;;;23.70;64.00;;;;;;5063376;28;20469;-69
2022/08/22 08:17:04;;;;;;;4.13;3.70;;;23.70;63.90;;;;;;5065560;28;20441;-70
2022/08/22 08:19:33;;;;;;;5.93;3.87;;;23.80;63.70;;;;;;5065364;28;20452;-70
2022/08/22 08:22:00;;;;;;;4.50;4.10;;;23.90;63.60;;;;;;5066506;28;20451;-70
2022/08/22 08:24:31;;;;;;;5.67;4.30;;;24.00;63.50;;;;;;5049859;28;21055;-70
2022/08/22 08:30:03;;;;;;;4.00;3.70;;;24.10;63.80;;;;;;5061051;28;20529;-68
2022/08/22 08:32:34;;;;;;;4.00;3.17;;;24.20;63.60;;;;;;5058446;28;20472;-69
2022/08/22 08:35:28;;;;;;;3.80;3.50;;;24.30;63.50;;;;;;5066820;28;20474;-69
2022/08/22 08:38:07;;;;;;;4.00;3.70;;;24.40;63.10;;;;;;5055354;28;20446;-69
2022/08/22 08:40:33;;;;;;;3.63;3.33;;;24.40;63.20;;;;;;5070524;28;20454;-69
2022/08/22 08:43:35;;;;;;;3.73;3.30;;;24.60;63.30;;;;;;5078065;28;20785;-69
2022/08/22 08:46:25;;;;;;;4.23;3.83;;;24.60;63.20;;;;;;5058571;28;20222;-69
2022/08/22 08:49:17;;;;;;;4.00;3.60;;;24.80;63.50;;;;;;5067379;28;20535;-69
2022/08/22 08:51:52;;;;;;;5.10;3.50;;;24.80;63.30;;;;;;5066524;28;20450;-69
2022/08/22 08:54:50;;;;;;;4.50;3.77;;;24.90;63.30;;;;;;5067214;28;20465;-70
2022/08/22 08:57:44;;;;;;;3.77;3.20;;;25.00;62.50;;;;;;5061802;28;20456;-69
2022/08/22 09:00:25;;;;;;;4.00;3.57;;;25.10;62.80;;;;;;5063130;28;20490;-70
2022/08/22 09:03:01;;;;;;;4.00;3.70;;;25.30;62.90;;;;;;5060157;28;20450;-68
2022/08/22 09:05:54;;;;;;;3.53;3.27;;;25.30;62.10;;;;;;5061454;28;20469;-69
2022/08/22 09:08:41;;;;;;;4.03;3.50;;;25.40;62.00;;;;;;5075394;28;20445;-69
2022/08/22 09:11:37;;;;;;;4.53;4.23;;;25.50;62.30;;;;;;5047378;28;20438;-69
2022/08/22 09:14:15;;;;;;;5.67;3.40;;;25.60;62.20;;;;;;5062492;28;20981;-68
2022/08/22 09:16:53;;;;;;;6.93;4.00;;;25.70;62.00;;;;;;5062152;28;20442;-68
2022/08/22 09:19:41;;;;;;;4.13;3.67;;;25.90;61.60;;;;;;5067498;28;20551;-70
2022/08/22 09:22:30;;;;;;;4.23;3.87;;;26.00;61.80;;;;;;5055687;28;20451;-70
2022/08/22 09:25:24;;;;;;;4.47;4.07;;;26.20;61.30;;;;;;5047366;28;20453;-70
2022/08/22 09:28:17;;;;;;;4.43;3.90;;;26.30;61.00;;;;;;5043095;28;20456;-68
2022/08/22 09:30:46;;;;;;;3.70;3.40;;;26.40;61.00;;;;;;5047601;28;20450;-69
2022/08/22 09:33:21;;;;;;;3.67;3.37;;;26.50;60.70;;;;;;5068863;28;20474;-69
2022/08/22 09:36:02;;;;;;;5.40;3.63;;;26.60;60.60;;;;;;5060144;28;20472;-70
2022/08/22 09:38:40;;;;;;;4.30;4.00;;;26.60;60.10;;;;;;5059523;28;20819;-69
2022/08/22 09:41:24;;;;;;;4.40;4.03;;;26.70;60.20;;;;;;5067361;28;20456;-69
2022/08/22 09:44:11;;;;;;;4.33;4.00;;;26.70;59.80;;;;;;5065249;28;20464;-69
2022/08/22 09:47:01;;;;;;;4.80;4.30;;;26.90;59.80;;;;;;5045852;28;20464;-69
2022/08/22 09:49:39;;;;;;;4.73;4.33;;;27.00;59.60;;;;;;5059272;28;20473;-69
2022/08/22 09:52:08;;;;;;;4.90;4.47;;;27.00;59.10;;;;;;5062921;28;20462;-69
2022/08/22 09:54:44;;;;;;;5.20;4.77;;;26.90;59.40;;;;;;5063000;28;20476;-69
2022/08/22 09:57:36;;;;;;;4.40;4.07;;;27.00;59.60;;;;;;5060851;28;21002;-69
2022/08/22 10:00:05;;;;;;;5.23;4.73;;;27.20;59.50;;;;;;5060759;28;20608;-70
2022/08/22 10:03:20;;;;;;;4.07;3.77;;;27.30;59.50;;;;;;5060498;28;20518;-70
2022/08/22 10:05:59;;;;;;;3.30;3.10;;;27.50;59.40;;;;;;5028596;28;20502;-69
2022/08/22 10:08:35;;;;;;;4.53;4.20;;;27.70;59.40;;;;;;5043688;28;20216;-70
2022/08/22 10:11:14;;;;;;;5.40;4.07;;;27.90;59.10;;;;;;5049458;28;20221;-70
2022/08/22 10:13:50;;;;;;;4.40;4.10;;;28.20;58.80;;;;;;5066653;28;20236;-69
2022/08/22 10:16:42;;;;;;;4.32;4.00;;;28.40;58.50;;;;;;5069809;28;20262;-69
2022/08/22 10:19:23;;;;;;;5.40;4.10;;;28.30;58.20;;;;;;5044363;28;20232;-70
2022/08/22 10:22:14;;;;;;;4.97;4.55;;;28.40;58.10;;;;;;5051043;28;20235;-69
2022/08/22 10:24:55;;;;;;;5.82;4.70;;;28.60;57.90;;;;;;5059309;28;20239;-69
2022/08/22 10:27:52;;;;;;;4.38;3.97;;;28.80;57.70;;;;;;5065052;28;20285;-69
2022/08/22 10:30:21;;;;;;;3.78;3.50;;;29.00;57.30;;;;;;5059357;28;20236;-70
2022/08/22 10:33:08;;;;;;;4.05;3.75;;;29.00;57.30;;;;;;5070570;28;20218;-70
2022/08/22 10:35:44;;;;;;;3.92;3.58;;;29.10;57.10;;;;;;5058130;28;20237;-69
2022/08/22 10:38:19;;;;;;;3.60;3.30;;;29.20;57.20;;;;;;5076082;28;20223;-70
2022/08/22 10:40:52;;;;;;;4.20;3.90;;;29.20;57.10;;;;;;5068253;28;20317;-69
2022/08/22 10:43:24;;;;;;;4.07;3.78;;;29.20;57.00;;;;;;5067320;28;20226;-70
2022/08/22 10:46:06;;;;;;;4.60;4.30;;;29.20;56.90;;;;;;5065789;28;20235;-68
2022/08/22 10:48:49;;;;;;;4.40;4.00;;;29.40;56.30;;;;;;5065617;28;20228;-70
2022/08/22 10:51:27;;;;;;;4.57;4.28;;;29.40;56.40;;;;;;5061273;28;20315;-70
2022/08/22 10:54:02;;;;;;;4.32;4.03;;;29.60;56.00;;;;;;5079406;28;20236;-70
2022/08/22 10:56:38;;;;;;;5.70;4.10;;;29.90;56.20;;;;;;5080194;28;20296;-69
2022/08/22 10:59:22;;;;;;;6.78;4.50;;;29.90;56.10;;;;;;5049624;28;20305;-70
2022/08/22 11:01:58;;;;;;;4.10;3.70;;;30.00;55.30;;;;;;5064082;28;20239;-70
2022/08/22 11:04:44;;;;;;;4.82;4.43;;;30.20;54.30;;;;;;5064999;28;20247;-70
2022/08/22 11:07:28;;;;;;;4.10;3.80;;;30.30;54.60;;;;;;5068396;28;20290;-70
2022/08/22 11:10:03;;;;;;;4.70;4.30;;;30.50;54.40;;;;;;5066062;28;20233;-70
2022/08/22 11:12:43;;;;;;;4.28;3.97;;;30.70;53.90;;;;;;5058242;27;20692;-70
2022/08/22 11:15:17;;;;;;;3.92;3.63;;;30.70;54.40;;;;;;5060549;28;20679;-70
2022/08/22 11:18:02;;;;;;;3.70;3.47;;;30.70;54.50;;;;;;5060691;28;20611;-68
2022/08/22 11:20:41;;;;;;;4.25;3.55;;;30.70;54.30;;;;;;5058911;28;20231;-70
2022/08/22 11:23:28;;;;;;;3.90;3.60;;;30.70;54.00;;;;;;5075597;28;20577;-69
2022/08/22 11:26:48;;;;;;;4.38;4.07;;;30.60;53.30;;;;;;5067517;28;20218;-71
2022/08/22 11:29:38;;;;;;;3.78;3.45;;;30.60;53.30;;;;;;5045090;28;20271;-70
2022/08/22 11:32:08;;;;;;;4.03;3.67;;;30.60;53.50;;;;;;5062508;28;20219;-70
2022/08/22 11:34:50;;;;;;;4.00;3.30;;;30.70;53.10;;;;;;5067365;28;20234;-70
2022/08/22 11:37:23;;;;;;;3.40;3.20;;;30.90;52.60;;;;;;5063616;28;20213;-70
2022/08/22 11:40:14;;;;;;;3.67;3.42;;;31.00;52.70;;;;;;5058450;28;20227;-69
2022/08/22 11:42:48;;;;;;;3.85;3.55;;;30.90;52.70;;;;;;5077497;28;20245;-70
2022/08/22 11:45:21;;;;;;;3.65;3.35;;;30.90;52.50;;;;;;5064548;28;20222;-70
2022/08/22 11:48:18;;;;;;;3.45;3.10;;;30.80;52.00;;;;;;5062154;28;20222;-69
2022/08/22 11:50:55;;;;;;;3.95;3.35;;;30.60;51.80;;;;;;5056757;28;20231;-70
2022/08/22 11:53:38;;;;;;;3.60;3.25;;;30.60;51.40;;;;;;5068159;28;20294;-70
2022/08/22 11:56:13;;;;;;;3.83;3.30;;;30.60;50.60;;;;;;5065004;28;20230;-69
2022/08/22 11:59:00;;;;;;;3.42;3.13;;;30.70;51.30;;;;;;5064816;28;20233;-70
2022/08/22 12:01:40;;;;;;;3.38;3.05;;;30.80;50.80;;;;;;5080028;28;20226;-70
2022/08/22 12:04:25;;;;;;;3.33;3.03;;;30.80;50.60;;;;;;5078999;28;20288;-70
2022/08/22 12:06:58;;;;;;;5.07;3.80;;;30.80;50.20;;;;;;5060266;28;20223;-70
2022/08/22 12:09:40;;;;;;;5.03;3.67;;;30.90;50.00;;;;;;5061686;28;20291;-70
2022/08/22 12:12:18;;;;;;;3.92;3.10;;;30.90;50.30;;;;;;5059128;28;20691;-70
2022/08/22 12:14:52;;;;;;;3.88;3.38;;;30.90;50.50;;;;;;5044101;28;20254;-69
2022/08/22 12:17:44;;;;;;;3.22;2.95;;;30.90;50.50;;;;;;5065075;28;20218;-70
2022/08/22 12:20:28;;;;;;;3.00;2.70;;;31.20;50.10;;;;;;5037054;28;20219;-70
2022/08/22 12:23:07;;;;;;;3.30;3.03;;;31.30;49.70;;;;;;5062721;28;20310;-70
2022/08/22 12:25:53;;;;;;;3.92;2.80;;;31.30;50.30;;;;;;5066169;28;20582;-70
2022/08/22 12:28:30;;;;;;;3.08;2.85;;;31.50;50.60;;;;;;5058352;28;20222;-70
2022/08/22 12:31:02;;;;;;;3.85;3.05;;;31.60;50.20;;;;;;5054853;28;20216;-70
2022/08/22 12:33:55;;;;;;;3.92;3.20;;;31.70;49.80;;;;;;5066190;28;20264;-69
2022/08/22 12:36:50;;;;;;;2.97;2.72;;;31.90;48.90;;;;;;5045858;28;20755;-70
2022/08/22 12:39:41;;;;;;;3.28;2.95;;;32.00;49.10;;;;;;5062204;28;20215;-70
2022/08/22 12:42:35;;;;;;;3.30;3.00;;;32.00;48.50;;;;;;5048079;28;20219;-70
2022/08/22 12:45:24;;;;;;;4.00;3.60;;;32.10;47.90;;;;;;5066301;28;20223;-70
2022/08/22 12:48:38;;;;;;;3.53;3.05;;;32.20;49.00;;;;;;5064005;28;20227;-70
2022/08/22 12:51:23;;;;;;;4.22;3.13;;;32.10;48.60;;;;;;5029811;28;20353;-70
2022/08/22 12:54:10;;;;;;;3.00;2.80;;;32.10;48.50;;;;;;5042762;28;20207;-70
2022/08/22 12:56:51;;;;;;;3.42;3.22;;;32.00;48.90;;;;;;5051551;28;20214;-70
2022/08/22 12:59:23;;;;;;;3.30;3.10;;;32.00;48.40;;;;;;5078222;28;20223;-70
2022/08/22 13:01:53;;;;;;;3.30;3.10;;;31.90;47.90;;;;;;5047282;28;20242;-69
2022/08/22 13:04:23;;;;;;;3.75;3.15;;;31.90;48.00;;;;;;5063149;28;20215;-70
2022/08/22 13:07:06;;;;;;;3.78;3.47;;;31.90;48.30;;;;;;5059652;28;20770;-69
2022/08/22 13:09:38;;;;;;;3.97;3.67;;;32.00;48.10;;;;;;5049535;28;20219;-70
2022/08/22 13:12:28;;;;;;;3.50;3.17;;;32.00;48.00;;;;;;5064749;28;20319;-70
2022/08/22 13:15:19;;;;;;;4.05;3.75;;;31.80;48.10;;;;;;5062544;28;20325;-70
2022/08/22 13:17:49;;;;;;;3.55;3.08;;;31.40;48.30;;;;;;5060221;28;20227;-69
2022/08/22 13:20:24;;;;;;;3.67;3.38;;;31.50;48.70;;;;;;5065758;28;20246;-70
2022/08/22 13:22:50;;;;;;;3.80;3.50;;;31.70;48.20;;;;;;5077888;28;20226;-70
2022/08/22 13:25:28;;;;;;;3.78;3.17;;;31.90;47.90;;;;;;5067615;28;20218;-70
2022/08/22 13:27:57;;;;;;;3.53;3.30;;;32.00;48.20;;;;;;5062244;28;20238;-70
2022/08/22 13:30:34;;;;;;;3.28;2.92;;;32.20;48.30;;;;;;5074250;28;20227;-70
2022/08/22 13:33:13;;;;;;;3.38;3.17;;;32.30;48.20;;;;;;5062500;28;20674;-70
2022/08/22 13:35:47;;;;;;;3.53;3.33;;;32.20;48.20;;;;;;5065515;28;20237;-70
2022/08/22 13:38:30;;;;;;;3.63;3.05;;;32.20;48.70;;;;;;5060730;28;20234;-70
2022/08/22 13:40:57;;;;;;;3.17;2.97;;;32.10;47.90;;;;;;5060417;28;20223;-70
2022/08/22 13:43:28;;;;;;;3.95;3.47;;;32.00;47.90;;;;;;5070201;28;20296;-70
2022/08/22 13:45:59;;;;;;;4.60;3.60;;;32.00;47.70;;;;;;5071478;28;20243;-70
2022/08/22 13:48:49;;;;;;;3.75;3.20;;;31.90;47.60;;;;;;5067128;27;20239;-70
2022/08/22 13:51:27;;;;;;;5.85;3.63;;;31.90;48.30;;;;;;5055965;28;20267;-69
2022/08/22 13:54:13;;;;;;;4.10;3.80;;;31.70;47.80;;;;;;5067059;28;20218;-70
2022/08/22 13:56:57;;;;;;;4.05;3.75;;;31.60;47.80;;;;;;5046021;27;20323;-70
2022/08/22 13:59:44;;;;;;;3.05;2.75;;;31.70;48.40;;;;;;5063948;27;20309;-70
2022/08/22 14:02:34;;;;;;;4.10;3.75;;;31.80;48.70;;;;;;5079340;28;20222;-70